createdAt,value
2024-01-10T00:00:41.216Z,604.00
2024-01-10T00:01:41.308Z,603.00
2024-01-10T00:02:41.350Z,605.00
2024-01-10T00:03:41.415Z,608.00
2024-01-10T00:04:41.545Z,604.00
2024-01-10T00:05:41.594Z,602.00
2024-01-10T00:06:41.715Z,604.00
2024-01-10T00:07:41.781Z,605.00
2024-01-10T00:08:41.786Z,602.00
2024-01-10T00:09:41.856Z,605.00
2024-01-10T00:10:41.959Z,605.00
2024-01-10T00:11:42.027Z,608.00
2024-01-10T00:12:42.088Z,604.00
2024-01-10T00:13:42.168Z,603.00
2024-01-10T00:14:42.225Z,602.00
2024-01-10T00:15:42.253Z,604.00
2024-01-10T00:16:42.334Z,601.00
2024-01-10T00:17:42.456Z,604.00
2024-01-10T00:18:42.490Z,606.00
2024-01-10T00:19:42.543Z,603.00
2024-01-10T00:20:42.607Z,606.00
2024-01-10T00:21:42.718Z,606.00
2024-01-10T00:22:42.817Z,605.00
2024-01-10T00:23:42.805Z,605.00
2024-01-10T00:24:42.884Z,606.00
2024-01-10T00:25:43.029Z,602.00
2024-01-10T00:26:43.048Z,605.00
2024-01-10T00:27:43.086Z,605.00
2024-01-10T00:28:43.168Z,606.00
2024-01-10T00:29:43.226Z,606.00
2024-01-10T00:30:43.341Z,602.00
2024-01-10T00:31:43.434Z,608.00
2024-01-10T00:32:43.468Z,603.00
2024-01-10T00:33:43.629Z,608.00
2024-01-10T00:34:43.556Z,604.00
2024-01-10T00:35:43.630Z,603.00
2024-01-10T00:36:43.677Z,602.00
2024-01-10T00:37:43.786Z,607.00
2024-01-10T00:38:43.802Z,607.00
2024-01-10T00:39:43.866Z,604.00
2024-01-10T00:40:43.927Z,603.00
2024-01-10T00:41:43.946Z,608.00
2024-01-10T00:42:44.000Z,609.00
2024-01-10T00:43:44.099Z,607.00
2024-01-10T00:44:44.169Z,605.00
2024-01-10T00:45:44.176Z,602.00
2024-01-10T00:46:44.303Z,606.00
2024-01-10T00:47:44.383Z,606.00
2024-01-10T00:48:44.439Z,608.00
2024-01-10T00:49:44.472Z,606.00
2024-01-10T00:50:44.496Z,603.00
2024-01-10T00:51:44.547Z,608.00
2024-01-10T00:52:44.640Z,602.00
2024-01-10T00:53:44.673Z,605.00
2024-01-10T00:54:44.726Z,608.00
2024-01-10T00:55:44.831Z,602.00
2024-01-10T00:56:44.875Z,605.00
2024-01-10T00:57:45.005Z,605.00
2024-01-10T00:58:45.056Z,607.00
2024-01-10T00:59:45.105Z,609.00
2024-01-10T01:00:45.976Z,605.00
2024-01-10T01:01:45.276Z,605.00
2024-01-10T01:02:45.286Z,607.00
2024-01-10T01:03:45.472Z,606.00
2024-01-10T01:04:45.590Z,606.00
2024-01-10T01:05:45.619Z,605.00
2024-01-10T01:06:45.548Z,606.00
2024-01-10T01:07:45.665Z,607.00
2024-01-10T01:08:45.715Z,607.00
2024-01-10T01:09:45.797Z,602.00
2024-01-10T01:10:45.905Z,609.00
2024-01-10T01:11:45.925Z,605.00
2024-01-10T01:12:45.998Z,606.00
2024-01-10T01:13:46.049Z,605.00
2024-01-10T01:14:46.042Z,608.00
2024-01-10T01:15:46.088Z,606.00
2024-01-10T01:16:46.203Z,610.00
2024-01-10T01:17:46.242Z,603.00
2024-01-10T01:18:46.308Z,606.00
2024-01-10T01:19:46.336Z,606.00
2024-01-10T01:20:46.359Z,605.00
2024-01-10T01:21:46.427Z,605.00
2024-01-10T01:22:46.475Z,603.00
2024-01-10T01:23:46.580Z,604.00
2024-01-10T01:24:46.582Z,604.00
2024-01-10T01:25:46.651Z,602.00
2024-01-10T01:26:46.633Z,608.00
2024-01-10T01:27:46.719Z,603.00
2024-01-10T01:28:46.838Z,605.00
2024-01-10T01:29:46.822Z,605.00
2024-01-10T01:30:46.901Z,605.00
2024-01-10T01:31:46.985Z,605.00
2024-01-10T01:32:47.058Z,605.00
2024-01-10T01:33:47.104Z,604.00
2024-01-10T01:34:47.144Z,606.00
2024-01-10T01:35:47.143Z,604.00
2024-01-10T01:36:47.168Z,605.00
2024-01-10T01:37:47.295Z,606.00
2024-01-10T01:38:47.288Z,604.00
2024-01-10T01:39:47.358Z,606.00
2024-01-10T01:40:47.462Z,604.00
2024-01-10T01:41:47.462Z,603.00
2024-01-10T01:42:47.631Z,605.00
2024-01-10T01:43:47.632Z,607.00
2024-01-10T01:44:47.652Z,604.00
2024-01-10T01:45:47.749Z,603.00
2024-01-10T01:46:47.842Z,605.00
2024-01-10T01:47:47.960Z,605.00
2024-01-10T01:48:48.067Z,602.00
2024-01-10T01:49:48.070Z,604.00
2024-01-10T01:50:48.090Z,603.00
2024-01-10T01:51:48.154Z,605.00
2024-01-10T01:52:48.224Z,605.00
2024-01-10T01:53:48.315Z,606.00
2024-01-10T01:54:48.380Z,607.00
2024-01-10T01:55:48.485Z,600.00
2024-01-10T01:56:48.464Z,606.00
2024-01-10T01:57:48.540Z,604.00
2024-01-10T01:58:48.597Z,605.00
2024-01-10T01:59:48.592Z,602.00
2024-01-10T02:00:48.690Z,605.00
2024-01-10T02:01:48.719Z,607.00
2024-01-10T02:02:48.904Z,611.00
2024-01-10T02:03:48.843Z,603.00
2024-01-10T02:04:48.883Z,604.00
2024-01-10T02:05:49.119Z,606.00
2024-01-10T02:06:49.019Z,604.00
2024-01-10T02:07:49.107Z,607.00
2024-01-10T02:08:49.080Z,604.00
2024-01-10T02:09:49.161Z,603.00
2024-01-10T02:10:49.273Z,608.00
2024-01-10T02:11:49.289Z,607.00
2024-01-10T02:12:49.363Z,601.00
2024-01-10T02:13:49.484Z,606.00
2024-01-10T02:14:49.441Z,605.00
2024-01-10T02:15:49.548Z,602.00
2024-01-10T02:16:49.589Z,607.00
2024-01-10T02:17:49.640Z,601.00
2024-01-10T02:18:49.725Z,603.00
2024-01-10T02:19:49.757Z,605.00
2024-01-10T02:20:49.776Z,606.00
2024-01-10T02:21:49.829Z,609.00
2024-01-10T02:22:49.904Z,603.00
2024-01-10T02:23:49.904Z,603.00
2024-01-10T02:24:49.955Z,609.00
2024-01-10T02:25:50.073Z,604.00
2024-01-10T02:26:50.068Z,606.00
2024-01-10T02:27:50.142Z,604.00
2024-01-10T02:28:50.153Z,605.00
2024-01-10T02:29:50.247Z,604.00
2024-01-10T02:30:50.280Z,601.00
2024-01-10T02:31:50.400Z,603.00
2024-01-10T02:32:50.430Z,601.00
2024-01-10T02:33:50.517Z,606.00
2024-01-10T02:34:50.621Z,604.00
2024-01-10T02:35:51.520Z,603.00
2024-01-10T02:36:50.663Z,603.00
2024-01-10T02:37:50.771Z,605.00
2024-01-10T02:38:50.805Z,602.00
2024-01-10T02:39:50.898Z,606.00
2024-01-10T02:40:50.972Z,600.00
2024-01-10T02:41:51.044Z,607.00
2024-01-10T02:42:51.102Z,605.00
2024-01-10T02:43:51.171Z,601.00
2024-01-10T02:44:51.237Z,605.00
2024-01-10T02:45:51.332Z,605.00
2024-01-10T02:46:51.402Z,603.00
2024-01-10T02:47:51.511Z,605.00
2024-01-10T02:48:51.548Z,607.00
2024-01-10T02:49:51.648Z,603.00
2024-01-10T02:50:51.673Z,604.00
2024-01-10T02:51:51.722Z,605.00
2024-01-10T02:52:51.802Z,606.00
2024-01-10T02:53:51.905Z,603.00
2024-01-10T02:54:51.950Z,606.00
2024-01-10T02:55:52.044Z,601.00
2024-01-10T02:56:52.087Z,606.00
2024-01-10T02:57:52.184Z,605.00
2024-01-10T02:58:52.323Z,604.00
2024-01-10T02:59:52.312Z,605.00
2024-01-10T03:00:52.454Z,606.00
2024-01-10T03:01:52.492Z,609.00
2024-01-10T03:02:52.525Z,608.00
2024-01-10T03:03:52.606Z,607.00
2024-01-10T03:04:52.667Z,607.00
2024-01-10T03:05:52.725Z,605.00
2024-01-10T03:06:52.754Z,607.00
2024-01-10T03:07:52.870Z,602.00
2024-01-10T03:08:52.939Z,604.00
2024-01-10T03:09:52.980Z,609.00
2024-01-10T03:10:53.112Z,607.00
2024-01-10T03:11:53.129Z,604.00
2024-01-10T03:12:53.182Z,603.00
2024-01-10T03:13:53.307Z,604.00
2024-01-10T03:14:53.329Z,606.00
2024-01-10T03:15:53.393Z,603.00
2024-01-10T03:16:53.478Z,606.00
2024-01-10T03:17:53.676Z,605.00
2024-01-10T03:19:53.643Z,610.00
2024-01-10T03:20:53.685Z,602.00
2024-01-10T03:21:53.785Z,603.00
2024-01-10T03:22:53.873Z,602.00
2024-01-10T03:23:53.918Z,604.00
2024-01-10T03:24:53.986Z,604.00
2024-01-10T03:25:54.035Z,608.00
2024-01-10T03:26:54.129Z,604.00
2024-01-10T03:27:54.185Z,608.00
2024-01-10T03:28:54.260Z,607.00
2024-01-10T03:29:54.363Z,605.00
2024-01-10T03:30:54.473Z,609.00
2024-01-10T03:31:54.514Z,607.00
2024-01-10T03:32:54.646Z,605.00
2024-01-10T03:33:54.781Z,608.00
2024-01-10T03:34:54.710Z,603.00
2024-01-10T03:35:54.725Z,602.00
2024-01-10T03:36:54.807Z,608.00
2024-01-10T03:37:54.909Z,605.00
2024-01-10T03:38:54.928Z,607.00
2024-01-10T03:39:55.015Z,608.00
2024-01-10T03:40:55.135Z,606.00
2024-01-10T03:41:55.164Z,607.00
2024-01-10T03:42:55.244Z,603.00
2024-01-10T03:43:55.327Z,601.00
2024-01-10T03:44:55.374Z,607.00
2024-01-10T03:45:55.446Z,611.00
2024-01-10T03:46:55.529Z,604.00
2024-01-10T03:47:55.579Z,605.00
2024-01-10T03:48:55.687Z,604.00
2024-01-10T03:49:55.662Z,603.00
2024-01-10T03:50:55.698Z,602.00
2024-01-10T03:51:55.771Z,607.00
2024-01-10T03:52:55.834Z,606.00
2024-01-10T03:53:55.902Z,600.00
2024-01-10T03:54:55.956Z,608.00
2024-01-10T03:55:56.117Z,605.00
2024-01-10T03:56:56.127Z,602.00
2024-01-10T03:57:56.188Z,604.00
2024-01-10T03:58:56.287Z,606.00
2024-01-10T03:59:56.317Z,604.00
2024-01-10T04:00:56.370Z,604.00
2024-01-10T04:01:56.538Z,604.00
2024-01-10T04:02:56.507Z,606.00
2024-01-10T04:03:56.574Z,603.00
2024-01-10T04:04:56.649Z,600.00
2024-01-10T04:05:56.714Z,604.00
2024-01-10T04:06:56.864Z,602.00
2024-01-10T04:07:56.928Z,605.00
2024-01-10T04:08:56.916Z,604.00
2024-01-10T04:09:56.985Z,600.00
2024-01-10T04:10:57.108Z,606.00
2024-01-10T04:11:57.144Z,606.00
2024-01-10T04:12:57.169Z,606.00
2024-01-10T04:13:57.243Z,602.00
2024-01-10T04:14:57.277Z,608.00
2024-01-10T04:15:57.327Z,605.00
2024-01-10T04:16:57.452Z,605.00
2024-01-10T04:17:57.640Z,606.00
2024-01-10T04:19:57.674Z,604.00
2024-01-10T04:20:57.821Z,603.00
2024-01-10T04:21:57.759Z,603.00
2024-01-10T04:22:57.833Z,600.00
2024-01-10T04:23:57.892Z,605.00
2024-01-10T04:24:57.964Z,603.00
2024-01-10T04:25:58.047Z,604.00
2024-01-10T04:26:58.124Z,603.00
2024-01-10T04:27:58.200Z,604.00
2024-01-10T04:28:58.272Z,602.00
2024-01-10T04:29:58.302Z,603.00
2024-01-10T04:30:58.501Z,604.00
2024-01-10T04:31:58.523Z,602.00
2024-01-10T04:32:58.534Z,600.00
2024-01-10T04:33:58.621Z,604.00
2024-01-10T04:34:58.688Z,604.00
2024-01-10T04:35:58.708Z,609.00
2024-01-10T04:36:58.778Z,603.00
2024-01-10T04:37:58.919Z,602.00
2024-01-10T04:38:58.968Z,604.00
2024-01-10T04:39:59.004Z,601.00
2024-01-10T04:40:59.165Z,602.00
2024-01-10T04:41:59.157Z,605.00
2024-01-10T04:42:59.200Z,604.00
2024-01-10T04:43:59.303Z,603.00
2024-01-10T04:44:59.316Z,603.00
2024-01-10T04:45:59.370Z,602.00
2024-01-10T04:46:59.575Z,604.00
2024-01-10T04:48:07.029Z,600.00
2024-01-10T04:49:07.113Z,600.00
2024-01-10T04:50:09.566Z,600.00
2024-01-10T04:51:06.909Z,600.00
2024-01-10T04:52:06.907Z,600.00
2024-01-10T04:53:06.957Z,600.00
2024-01-10T04:54:06.924Z,600.00
2024-01-10T04:55:06.920Z,600.00
2024-01-10T04:56:06.953Z,604.00
2024-01-10T04:57:06.920Z,601.00
2024-01-10T04:58:06.900Z,602.00
2024-01-10T04:59:06.927Z,601.00
2024-01-10T05:00:06.906Z,604.00
2024-01-10T05:01:06.928Z,601.00
2024-01-10T05:02:06.967Z,603.00
2024-01-10T05:03:06.966Z,602.00
2024-01-10T05:04:06.936Z,600.00
2024-01-10T05:05:07.050Z,602.00
2024-01-10T05:06:07.009Z,601.00
2024-01-10T05:07:06.957Z,605.00
2024-01-10T05:08:07.088Z,600.00
2024-01-10T05:09:06.948Z,607.00
2024-01-10T05:10:06.950Z,605.00
2024-01-10T05:11:07.012Z,603.00
2024-01-10T05:12:06.953Z,603.00
2024-01-10T05:13:06.945Z,604.00
2024-01-10T05:14:06.973Z,603.00
2024-01-10T05:15:06.951Z,605.00
2024-01-10T05:16:06.966Z,606.00
2024-01-10T05:17:06.984Z,604.00
2024-01-10T05:18:06.997Z,603.00
2024-01-10T05:19:07.019Z,606.00
2024-01-10T05:20:07.041Z,603.00
2024-01-10T05:21:06.957Z,604.00
2024-01-10T05:22:06.970Z,607.00
2024-01-10T05:23:07.034Z,603.00
2024-01-10T05:24:06.967Z,603.00
2024-01-10T05:25:06.975Z,603.00
2024-01-10T05:26:07.033Z,603.00
2024-01-10T05:27:06.971Z,600.00
2024-01-10T05:28:07.004Z,601.00
2024-01-10T05:29:07.044Z,605.00
2024-01-10T05:30:07.085Z,600.00
2024-01-10T05:31:07.079Z,602.00
2024-01-10T05:32:06.989Z,605.00
2024-01-10T05:33:07.155Z,603.00
2024-01-10T05:34:07.008Z,600.00
2024-01-10T05:35:07.019Z,602.00
2024-01-10T05:36:06.984Z,605.00
2024-01-10T05:37:07.014Z,604.00
2024-01-10T05:38:07.093Z,600.00
2024-01-10T05:39:06.990Z,604.00
2024-01-10T05:40:06.980Z,605.00
2024-01-10T05:41:07.063Z,607.00
2024-01-10T05:42:06.989Z,608.00
2024-01-10T05:43:06.988Z,602.00
2024-01-10T05:44:07.025Z,606.00
2024-01-10T05:45:07.022Z,607.00
2024-01-10T05:46:07.006Z,603.00
2024-01-10T05:47:07.040Z,607.00
2024-01-10T05:48:07.112Z,606.00
2024-01-10T05:49:07.124Z,605.00
2024-01-10T05:50:07.107Z,606.00
2024-01-10T05:51:07.067Z,604.00
2024-01-10T05:52:07.055Z,605.00
2024-01-10T05:53:07.158Z,606.00
2024-01-10T05:54:07.105Z,601.00
2024-01-10T05:55:07.176Z,604.00
2024-01-10T05:56:07.174Z,605.00
2024-01-10T05:57:07.197Z,605.00
2024-01-10T05:58:07.192Z,606.00
2024-01-10T05:59:07.303Z,604.00
2024-01-10T06:00:07.266Z,604.00
2024-01-10T06:01:29.813Z,605.00
2024-01-10T06:02:07.392Z,605.00
2024-01-10T06:03:07.314Z,607.00
2024-01-10T06:04:07.304Z,609.00
2024-01-10T06:05:07.653Z,611.00
2024-01-10T06:06:07.292Z,613.00
2024-01-10T06:07:07.323Z,612.00
2024-01-10T06:08:07.369Z,613.00
2024-01-10T06:09:07.357Z,612.00
2024-01-10T06:10:07.432Z,610.00
2024-01-10T06:11:07.448Z,611.00
2024-01-10T06:12:07.365Z,610.00
2024-01-10T06:13:07.353Z,609.00
2024-01-10T06:14:07.331Z,611.00
2024-01-10T06:15:07.322Z,612.00
2024-01-10T06:16:07.317Z,612.00
2024-01-10T06:17:07.387Z,612.00
2024-01-10T06:18:07.414Z,608.00
2024-01-10T06:19:07.455Z,610.00
2024-01-10T06:20:07.382Z,610.00
2024-01-10T06:21:07.350Z,610.00
2024-01-10T06:22:07.347Z,608.00
2024-01-10T06:23:07.370Z,610.00
2024-01-10T06:24:07.342Z,611.00
2024-01-10T06:25:07.337Z,611.00
2024-01-10T06:26:07.383Z,606.00
2024-01-10T06:27:07.358Z,608.00
2024-01-10T06:28:07.358Z,607.00
2024-01-10T06:29:07.410Z,608.00
2024-01-10T06:30:07.357Z,609.00
2024-01-10T06:31:09.937Z,608.00
2024-01-10T06:32:07.428Z,608.00
2024-01-10T06:33:07.382Z,608.00
2024-01-10T06:34:07.461Z,608.00
2024-01-10T06:35:07.387Z,611.00
2024-01-10T06:36:07.342Z,609.00
2024-01-10T06:37:07.352Z,608.00
2024-01-10T06:38:07.435Z,607.00
2024-01-10T06:39:07.472Z,604.00
2024-01-10T06:40:07.737Z,603.00
2024-01-10T06:41:07.416Z,606.00
2024-01-10T06:42:07.416Z,607.00
2024-01-10T06:43:07.375Z,603.00
2024-01-10T06:44:07.414Z,604.00
2024-01-10T06:45:07.381Z,605.00
2024-01-10T06:46:29.933Z,606.00
2024-01-10T06:47:07.433Z,607.00
2024-01-10T06:48:07.670Z,608.00
2024-01-10T06:49:07.474Z,612.00
2024-01-10T06:50:07.409Z,618.00
2024-01-10T06:51:07.360Z,625.00
2024-01-10T06:52:07.382Z,628.00
2024-01-10T06:53:07.420Z,631.00
2024-01-10T06:54:07.397Z,638.00
2024-01-10T06:55:07.408Z,643.00
2024-01-10T06:56:07.444Z,644.00
2024-01-10T06:57:07.426Z,650.00
2024-01-10T06:58:07.371Z,654.00
2024-01-10T06:59:07.503Z,660.00
2024-01-10T07:00:07.665Z,664.00
2024-01-10T07:01:07.428Z,669.00
2024-01-10T07:02:07.444Z,696.00
2024-01-10T07:03:07.671Z,703.00
2024-01-10T07:04:07.421Z,722.00
2024-01-10T07:05:07.409Z,720.00
2024-01-10T07:06:07.477Z,747.00
2024-01-10T07:07:07.447Z,757.00
2024-01-10T07:08:07.423Z,779.00
2024-01-10T07:09:07.421Z,795.00
2024-01-10T07:10:07.510Z,810.00
2024-01-10T07:11:07.567Z,811.00
2024-01-10T07:12:07.611Z,824.00
2024-01-10T07:13:07.644Z,846.00
2024-01-10T07:14:08.245Z,868.00
2024-01-10T07:15:07.641Z,881.00
2024-01-10T07:16:08.797Z,898.00
2024-01-10T07:17:07.742Z,901.00
2024-01-10T07:18:07.833Z,911.00
2024-01-10T07:19:07.844Z,918.00
2024-01-10T07:20:07.807Z,938.00
2024-01-10T07:21:07.815Z,952.00
2024-01-10T07:22:07.805Z,972.00
2024-01-10T07:23:07.858Z,982.00
2024-01-10T07:24:07.859Z,1000.00
2024-01-10T07:25:09.218Z,1001.00
2024-01-10T07:26:07.941Z,1017.00
2024-01-10T07:27:07.923Z,1033.00
2024-01-10T07:28:07.907Z,1054.00
2024-01-10T07:29:07.975Z,1059.00
2024-01-10T07:30:07.948Z,1078.00
2024-01-10T07:31:08.025Z,1099.00
2024-01-10T07:32:07.999Z,1094.00
2024-01-10T07:33:08.021Z,1111.00
2024-01-10T07:34:08.958Z,1116.00
2024-01-10T07:35:08.027Z,1133.00
2024-01-10T07:36:08.023Z,1138.00
2024-01-10T07:37:08.001Z,1148.00
2024-01-10T07:38:08.061Z,1362.00
2024-01-10T07:39:08.138Z,1433.00
2024-01-10T07:40:08.090Z,1467.00
2024-01-10T07:41:08.185Z,1502.00
2024-01-10T07:42:08.146Z,1516.00
2024-01-10T07:43:08.189Z,1521.00
2024-01-10T07:44:08.283Z,1511.00
2024-01-10T07:45:08.333Z,1534.00
2024-01-10T07:46:08.434Z,1524.00
2024-01-10T07:47:08.528Z,1514.00
2024-01-10T07:48:08.619Z,1521.00
2024-01-10T07:49:08.663Z,1507.00
2024-01-10T07:50:08.691Z,1503.00
2024-01-10T07:51:08.739Z,1494.00
2024-01-10T07:52:08.739Z,1483.00
2024-01-10T07:53:08.936Z,1480.00
2024-01-10T07:54:09.619Z,1455.00
2024-01-10T07:55:08.902Z,1442.00
2024-01-10T07:56:09.049Z,1435.00
2024-01-10T07:57:09.061Z,1422.00
2024-01-10T07:58:09.092Z,1411.00
2024-01-10T07:59:09.292Z,1402.00
2024-01-10T08:00:09.213Z,1383.00
2024-01-10T08:01:09.324Z,1373.00
2024-01-10T08:02:09.413Z,1358.00
2024-01-10T08:03:09.381Z,1367.00
2024-01-10T08:04:09.675Z,1345.00
2024-01-10T08:05:09.565Z,1348.00
2024-01-10T08:06:17.304Z,1348.00
2024-01-10T08:07:10.483Z,1348.00
2024-01-10T08:08:09.551Z,1360.00
2024-01-10T08:09:09.510Z,1408.00
2024-01-10T08:10:09.516Z,1459.00
2024-01-10T08:11:09.525Z,1574.00
2024-01-10T08:12:09.532Z,1607.00
2024-01-10T08:13:09.526Z,1615.00
2024-01-10T08:14:09.586Z,1603.00
2024-01-10T08:15:09.571Z,1582.00
2024-01-10T08:16:09.535Z,1567.00
2024-01-10T08:17:09.584Z,1556.00
2024-01-10T08:18:09.590Z,1536.00
2024-01-10T08:19:09.562Z,1522.00
2024-01-10T08:20:10.049Z,1512.00
2024-01-10T08:21:09.532Z,1500.00
2024-01-10T08:22:09.551Z,1497.00
2024-01-10T08:23:09.728Z,1491.00
2024-01-10T08:24:09.606Z,1491.00
2024-01-10T08:25:09.613Z,1491.00
2024-01-10T08:26:09.872Z,1473.00
2024-01-10T08:27:09.702Z,1467.00
2024-01-10T08:28:09.722Z,1460.00
2024-01-10T08:29:09.766Z,1461.00
2024-01-10T08:30:09.884Z,1444.00
2024-01-10T08:31:09.894Z,1448.00
2024-01-10T08:32:09.974Z,1451.00
2024-01-10T08:33:09.960Z,1463.00
2024-01-10T08:34:10.232Z,1462.00
2024-01-10T08:35:10.205Z,1475.00
2024-01-10T08:36:09.973Z,1453.00
2024-01-10T08:37:10.190Z,1410.00
2024-01-10T08:38:10.143Z,1363.00
2024-01-10T08:39:10.136Z,1322.00
2024-01-10T08:40:10.137Z,1271.00
2024-01-10T08:41:10.266Z,1245.00
2024-01-10T08:42:10.237Z,1193.00
2024-01-10T08:43:10.386Z,1136.00
2024-01-10T08:44:10.429Z,1099.00
2024-01-10T08:45:10.685Z,1059.00
2024-01-10T08:46:10.507Z,1026.00
2024-01-10T08:47:10.573Z,1006.00
2024-01-10T08:48:11.124Z,986.00
2024-01-10T08:49:10.757Z,974.00
2024-01-10T08:50:11.247Z,965.00
2024-01-10T08:51:10.729Z,950.00
2024-01-10T08:52:10.730Z,942.00
2024-01-10T08:53:10.795Z,933.00
2024-01-10T08:54:10.773Z,915.00
2024-01-10T08:55:13.385Z,907.00
2024-01-10T08:56:10.921Z,895.00
2024-01-10T08:57:10.814Z,888.00
2024-01-10T08:58:10.830Z,879.00
2024-01-10T08:59:10.838Z,870.00
2024-01-10T09:00:10.826Z,864.00
2024-01-10T09:01:10.904Z,859.00
2024-01-10T09:02:10.886Z,857.00
2024-01-10T09:03:10.916Z,858.00
2024-01-10T09:04:10.892Z,840.00
2024-01-10T09:05:10.949Z,842.00
2024-01-10T09:06:12.167Z,825.00
2024-01-10T09:07:10.968Z,824.00
2024-01-10T09:08:10.872Z,817.00
2024-01-10T09:09:10.842Z,823.00
2024-01-10T09:10:10.828Z,811.00
2024-01-10T09:11:10.874Z,807.00
2024-01-10T09:12:10.828Z,805.00
2024-01-10T09:13:10.908Z,799.00
2024-01-10T09:14:10.969Z,790.00
2024-01-10T09:15:10.870Z,791.00
2024-01-10T09:16:10.929Z,784.00
2024-01-10T09:17:10.868Z,779.00
2024-01-10T09:18:10.910Z,783.00
2024-01-10T09:19:11.830Z,787.00
2024-01-10T09:20:10.898Z,774.00
2024-01-10T09:21:10.871Z,773.00
2024-01-10T09:22:10.872Z,769.00
2024-01-10T09:23:10.903Z,766.00
2024-01-10T09:24:18.724Z,749.00
2024-01-10T09:25:11.979Z,750.00
2024-01-10T09:26:10.947Z,751.00
2024-01-10T09:27:10.939Z,750.00
2024-01-10T09:28:10.914Z,756.00
2024-01-10T09:29:10.943Z,750.00
2024-01-10T09:30:11.005Z,748.00
2024-01-10T09:31:11.037Z,749.00
2024-01-10T09:32:10.941Z,721.00
2024-01-10T09:33:11.153Z,684.00
2024-01-10T09:34:11.132Z,700.00
2024-01-10T09:35:11.037Z,724.00
2024-01-10T09:36:10.992Z,876.00
2024-01-10T09:37:10.964Z,1039.00
2024-01-10T09:38:10.997Z,1091.00
2024-01-10T09:39:10.924Z,1122.00
2024-01-10T09:40:10.982Z,1119.00
2024-01-10T09:41:11.201Z,1131.00
2024-01-10T09:42:11.057Z,1133.00
2024-01-10T09:43:11.101Z,1087.00
2024-01-10T09:44:11.211Z,1053.00
2024-01-10T09:45:11.187Z,1003.00
2024-01-10T09:46:11.225Z,1000.00
2024-01-10T09:47:11.372Z,985.00
2024-01-10T09:48:11.378Z,944.00
2024-01-10T09:49:11.423Z,921.00
2024-01-10T09:50:11.464Z,877.00
2024-01-10T09:51:11.498Z,876.00
2024-01-10T09:52:11.450Z,800.00
2024-01-10T09:53:11.524Z,740.00
2024-01-10T09:54:11.546Z,702.00
2024-01-10T09:55:11.579Z,682.00
2024-01-10T09:56:11.727Z,658.00
2024-01-10T09:57:11.654Z,643.00
2024-01-10T09:58:11.714Z,629.00
2024-01-10T09:59:11.783Z,622.00
2024-01-10T10:00:12.325Z,619.00
2024-01-10T10:01:11.873Z,611.00
2024-01-10T10:02:11.845Z,614.00
2024-01-10T10:03:11.934Z,611.00
2024-01-10T10:04:11.899Z,612.00
2024-01-10T10:05:11.971Z,609.00
2024-01-10T10:06:15.106Z,613.00
2024-01-10T10:07:12.108Z,613.00
2024-01-10T10:08:12.065Z,613.00
2024-01-10T10:09:11.909Z,614.00
2024-01-10T10:10:11.920Z,614.00
2024-01-10T10:11:11.959Z,615.00
2024-01-10T10:12:11.901Z,618.00
2024-01-10T10:13:14.959Z,619.00
2024-01-10T10:14:11.931Z,620.00
2024-01-10T10:15:11.936Z,621.00
2024-01-10T10:16:11.930Z,629.00
2024-01-10T10:17:11.971Z,643.00
2024-01-10T10:18:11.999Z,669.00
2024-01-10T10:19:12.020Z,683.00
2024-01-10T10:20:11.995Z,707.00
2024-01-10T10:21:13.122Z,716.00
2024-01-10T10:22:12.010Z,729.00
2024-01-10T10:23:12.033Z,730.00
2024-01-10T10:24:11.981Z,737.00
2024-01-10T10:25:12.000Z,749.00
2024-01-10T10:26:11.984Z,750.00
2024-01-10T10:27:11.950Z,754.00
2024-01-10T10:28:21.058Z,755.00
2024-01-10T10:29:13.034Z,755.00
2024-01-10T10:30:12.007Z,759.00
2024-01-10T10:31:11.922Z,762.00
2024-01-10T10:32:12.010Z,773.00
2024-01-10T10:33:11.986Z,787.00
2024-01-10T10:34:12.001Z,797.00
2024-01-10T10:35:24.543Z,803.00
2024-01-10T10:36:13.074Z,800.00
2024-01-10T10:37:11.961Z,804.00
2024-01-10T10:38:12.171Z,820.00
2024-01-10T10:39:11.973Z,841.00
2024-01-10T10:40:12.044Z,874.00
2024-01-10T10:41:12.551Z,880.00
2024-01-10T10:42:11.990Z,916.00
2024-01-10T10:43:12.026Z,907.00
2024-01-10T10:44:12.002Z,915.00
2024-01-10T10:45:12.003Z,898.00
2024-01-10T10:46:12.056Z,923.00
2024-01-10T10:47:13.194Z,927.00
2024-01-10T10:48:12.115Z,927.00
2024-01-10T10:49:12.172Z,931.00
2024-01-10T10:50:12.210Z,927.00
2024-01-10T10:51:12.325Z,918.00
2024-01-10T10:52:12.271Z,906.00
2024-01-10T10:53:14.007Z,912.00
2024-01-10T10:54:12.457Z,903.00
2024-01-10T10:55:12.465Z,906.00
2024-01-10T10:56:12.568Z,907.00
2024-01-10T10:57:12.576Z,906.00
2024-01-10T10:58:12.769Z,907.00
2024-01-10T10:59:12.754Z,903.00
2024-01-10T11:00:12.681Z,911.00
2024-01-10T11:01:12.868Z,904.00
2024-01-10T11:02:12.956Z,921.00
2024-01-10T11:03:12.884Z,926.00
2024-01-10T11:04:12.958Z,940.00
2024-01-10T11:05:13.203Z,933.00
2024-01-10T11:06:13.360Z,933.00
2024-01-10T11:07:13.134Z,937.00
2024-01-10T11:08:13.151Z,932.00
2024-01-10T11:09:13.171Z,937.00
2024-01-10T11:10:13.164Z,943.00
2024-01-10T11:11:13.322Z,935.00
2024-01-10T11:12:13.259Z,951.00
2024-01-10T11:13:13.315Z,945.00
2024-01-10T11:14:13.400Z,941.00
2024-01-10T11:15:13.418Z,925.00
2024-01-10T11:16:13.534Z,929.00
2024-01-10T11:17:13.614Z,935.00
2024-01-10T11:18:13.689Z,945.00
2024-01-10T11:19:13.707Z,927.00
2024-01-10T11:20:13.765Z,936.00
2024-01-10T11:21:13.746Z,933.00
2024-01-10T11:22:14.732Z,935.00
2024-01-10T11:23:13.827Z,938.00
2024-01-10T11:24:13.923Z,939.00
2024-01-10T11:25:13.936Z,934.00
2024-01-10T11:26:14.071Z,950.00
2024-01-10T11:27:14.020Z,939.00
2024-01-10T11:28:14.035Z,949.00
2024-01-10T11:29:14.156Z,938.00
2024-01-10T11:30:14.218Z,940.00
2024-01-10T11:31:14.242Z,941.00
2024-01-10T11:32:14.311Z,936.00
2024-01-10T11:33:14.317Z,943.00
2024-01-10T11:34:14.405Z,934.00
2024-01-10T11:35:14.430Z,935.00
2024-01-10T11:36:14.871Z,968.00
2024-01-10T11:37:14.420Z,1029.00
2024-01-10T11:38:14.573Z,1051.00
2024-01-10T11:39:14.539Z,1076.00
2024-01-10T11:40:14.580Z,1109.00
2024-01-10T11:41:14.621Z,1127.00
2024-01-10T11:42:14.594Z,1088.00
2024-01-10T11:43:14.669Z,1050.00
2024-01-10T11:44:15.206Z,994.00
2024-01-10T11:45:15.770Z,934.00
2024-01-10T11:46:14.797Z,906.00
2024-01-10T11:47:14.822Z,882.00
2024-01-10T11:48:14.855Z,870.00
2024-01-10T11:49:14.979Z,839.00
2024-01-10T11:50:14.951Z,823.00
2024-01-10T11:51:14.910Z,802.00
2024-01-10T11:52:14.878Z,795.00
2024-01-10T11:53:14.927Z,780.00
2024-01-10T11:54:14.940Z,764.00
2024-01-10T11:55:15.027Z,762.00
2024-01-10T11:56:18.698Z,752.00
2024-01-10T11:57:16.130Z,752.00
2024-01-10T11:58:15.093Z,749.00
2024-01-10T11:59:15.134Z,737.00
2024-01-10T12:00:15.061Z,741.00
2024-01-10T12:01:15.179Z,736.00
2024-01-10T12:02:15.127Z,724.00
2024-01-10T12:03:15.112Z,721.00
2024-01-10T12:04:20.840Z,728.00
2024-01-10T12:05:16.287Z,726.00
2024-01-10T12:06:15.371Z,722.00
2024-01-10T12:07:15.338Z,720.00
2024-01-10T12:08:15.168Z,719.00
2024-01-10T12:09:15.178Z,723.00
2024-01-10T12:10:15.175Z,723.00
2024-01-10T12:11:15.242Z,732.00
2024-01-10T12:12:15.186Z,727.00
2024-01-10T12:13:15.170Z,737.00
2024-01-10T12:14:15.156Z,738.00
2024-01-10T12:15:15.185Z,737.00
2024-01-10T12:16:15.168Z,736.00
2024-01-10T12:17:15.363Z,742.00
2024-01-10T12:18:15.209Z,746.00
2024-01-10T12:19:15.239Z,742.00
2024-01-10T12:20:15.318Z,739.00
2024-01-10T12:21:15.302Z,734.00
2024-01-10T12:22:15.311Z,747.00
2024-01-10T12:23:15.391Z,754.00
2024-01-10T12:24:15.407Z,741.00
2024-01-10T12:25:15.449Z,744.00
2024-01-10T12:26:15.483Z,751.00
2024-01-10T12:27:16.286Z,745.00
2024-01-10T12:28:15.548Z,744.00